createdAt,value
2022-12-22T00:02:39.035Z,73.07
2022-12-22T00:05:36.070Z,72.74
2022-12-22T00:08:23.510Z,72.73
2022-12-22T00:11:11.850Z,72.69
2022-12-22T00:14:03.675Z,72.77
2022-12-22T00:16:56.025Z,72.93
2022-12-22T00:19:42.759Z,73.02
2022-12-22T00:22:39.696Z,72.81
2022-12-22T00:25:28.363Z,72.87
2022-12-22T00:28:15.454Z,72.88
2022-12-22T00:31:03.182Z,72.78
2022-12-22T00:33:50.342Z,73.03
2022-12-22T00:36:42.443Z,73.32
2022-12-22T00:39:32.782Z,73.18
2022-12-22T00:42:19.369Z,73.29
2022-12-22T00:45:06.288Z,73.36
2022-12-22T00:47:53.506Z,73.45
2022-12-22T00:50:50.121Z,73.24
2022-12-22T00:53:37.208Z,73.12
2022-12-22T00:56:25.144Z,73.24
2022-12-22T00:59:15.184Z,73.34
2022-12-22T01:02:01.807Z,73.37
2022-12-22T01:04:49.179Z,73.23
2022-12-22T01:07:41.016Z,73.06
2022-12-22T01:10:32.409Z,73.08
2022-12-22T01:13:19.747Z,73.09
2022-12-22T01:16:06.408Z,73.35
2022-12-22T01:18:53.259Z,73.19
2022-12-22T01:21:39.861Z,73.10
2022-12-22T01:24:31.392Z,73.13
2022-12-22T01:27:18.654Z,73.34
2022-12-22T01:30:05.541Z,73.40
2022-12-22T01:32:51.950Z,73.64
2022-12-22T01:35:41.529Z,73.83
2022-12-22T01:38:28.600Z,73.64
2022-12-22T01:41:17.393Z,73.50
2022-12-22T01:44:03.997Z,73.35
2022-12-22T01:46:56.220Z,73.34
2022-12-22T01:49:48.846Z,73.13
2022-12-22T01:52:39.469Z,73.17
2022-12-22T01:55:30.864Z,73.32
2022-12-22T01:58:17.443Z,73.27
2022-12-22T02:01:05.771Z,73.27
2022-12-22T02:03:53.436Z,73.40
2022-12-22T02:07:12.660Z,73.81
2022-12-22T02:10:22.518Z,74.09
2022-12-22T02:13:23.791Z,73.77
2022-12-22T02:16:20.158Z,73.72
2022-12-22T02:19:16.392Z,73.91
2022-12-22T02:22:18.568Z,74.08
2022-12-22T02:25:12.099Z,74.03
2022-12-22T02:28:00.096Z,74.18
2022-12-22T02:30:47.557Z,74.49
2022-12-22T02:33:34.600Z,74.46
2022-12-22T02:36:52.101Z,74.20
2022-12-22T02:40:11.812Z,74.36
2022-12-22T02:43:13.353Z,74.25
2022-12-22T02:46:28.523Z,74.14
2022-12-22T02:49:21.049Z,74.19
2022-12-22T02:52:20.132Z,74.20
2022-12-22T02:55:06.643Z,74.21
2022-12-22T02:57:52.916Z,74.59
2022-12-22T03:00:40.111Z,74.35
2022-12-22T03:03:27.036Z,74.38
2022-12-22T03:06:13.849Z,74.62
2022-12-22T03:09:00.701Z,74.76
2022-12-22T03:11:47.103Z,74.74
2022-12-22T03:14:33.719Z,74.81
2022-12-22T03:17:20.368Z,74.80
2022-12-22T03:20:06.843Z,74.90
2022-12-22T03:22:53.513Z,74.99
2022-12-22T03:25:40.393Z,75.22
2022-12-22T03:28:09.250Z,75.25
2022-12-22T03:30:38.231Z,75.32
2022-12-22T03:33:06.612Z,75.29
2022-12-22T03:35:34.682Z,75.49
2022-12-22T03:38:03.781Z,75.72
2022-12-22T03:40:32.152Z,76.74
2022-12-22T03:43:18.693Z,76.31
2022-12-22T03:46:05.574Z,76.15
2022-12-22T03:48:33.570Z,76.03
2022-12-22T03:51:01.829Z,76.08
2022-12-22T03:53:30.211Z,76.11
2022-12-22T03:56:01.296Z,75.81
2022-12-22T03:58:33.859Z,75.77
2022-12-22T04:01:08.189Z,75.71
2022-12-22T04:03:36.205Z,75.70
2022-12-22T04:06:04.495Z,76.18
2022-12-22T04:08:32.966Z,76.07
2022-12-22T04:11:20.084Z,76.00
2022-12-22T04:13:48.050Z,75.90
2022-12-22T04:16:16.365Z,76.09
2022-12-22T04:18:44.356Z,76.18
2022-12-22T04:21:12.576Z,76.33
2022-12-22T04:23:41.216Z,76.19
2022-12-22T04:26:09.686Z,76.37
2022-12-22T04:28:37.648Z,76.76
2022-12-22T04:31:05.701Z,76.85
2022-12-22T04:33:33.726Z,76.81
2022-12-22T04:36:02.140Z,76.91
2022-12-22T04:38:30.318Z,77.03
2022-12-22T04:40:58.353Z,77.29
2022-12-22T04:43:26.659Z,77.32
2022-12-22T04:45:55.771Z,77.24
2022-12-22T04:48:25.839Z,77.29
2022-12-22T04:50:56.171Z,77.39
2022-12-22T04:53:26.197Z,77.30
2022-12-22T04:56:01.044Z,77.61
2022-12-22T04:58:29.883Z,77.50
2022-12-22T05:01:07.584Z,77.80
2022-12-22T05:03:35.812Z,77.45
2022-12-22T05:06:04.329Z,76.87
2022-12-22T05:08:32.399Z,77.40
2022-12-22T05:11:02.894Z,77.62
2022-12-22T05:13:32.004Z,77.61
2022-12-22T05:16:07.867Z,77.31
2022-12-22T05:18:37.650Z,78.00
2022-12-22T05:21:18.119Z,77.61
2022-12-22T05:23:46.699Z,77.48
2022-12-22T05:26:17.277Z,76.99
2022-12-22T05:28:46.801Z,76.92
2022-12-22T05:31:21.623Z,76.80
2022-12-22T05:33:49.999Z,76.96
2022-12-22T05:36:19.094Z,76.68
2022-12-22T05:38:47.181Z,76.53
2022-12-22T05:41:15.353Z,76.53
2022-12-22T05:43:43.325Z,76.53
2022-12-22T05:46:12.607Z,76.60
2022-12-22T05:48:40.834Z,76.61
2022-12-22T05:51:09.691Z,76.62
2022-12-22T05:53:38.370Z,76.61
2022-12-22T05:56:07.939Z,76.59
2022-12-22T05:58:38.982Z,76.58
2022-12-22T06:01:07.335Z,76.59
2022-12-22T06:03:35.476Z,76.80
2022-12-22T06:06:03.764Z,77.16
2022-12-22T06:08:31.925Z,77.41
2022-12-22T06:11:00.299Z,77.54
2022-12-22T06:13:28.395Z,77.69
2022-12-22T06:15:56.838Z,77.48
2022-12-22T06:18:25.458Z,77.52
2022-12-22T06:20:53.841Z,77.97
2022-12-22T06:23:22.708Z,78.41
2022-12-22T06:25:59.591Z,78.19
2022-12-22T06:28:28.692Z,78.34
2022-12-22T06:30:56.960Z,78.61
2022-12-22T06:33:25.340Z,78.22
2022-12-22T06:35:58.699Z,77.81
2022-12-22T06:38:28.358Z,77.84
2022-12-22T06:40:56.989Z,78.11
2022-12-22T06:43:25.917Z,78.33
2022-12-22T06:45:54.071Z,78.17
2022-12-22T06:48:22.339Z,77.92
2022-12-22T06:50:50.855Z,77.64
2022-12-22T06:53:19.031Z,78.00
2022-12-22T06:55:47.322Z,77.82
2022-12-22T06:58:15.582Z,77.82
2022-12-22T07:00:45.458Z,77.53
2022-12-22T07:03:13.813Z,77.56
2022-12-22T07:05:42.464Z,77.49
2022-12-22T07:08:10.540Z,77.35
2022-12-22T07:10:57.232Z,77.02
2022-12-22T07:13:34.255Z,76.82
2022-12-22T07:16:04.976Z,76.82
2022-12-22T07:18:35.596Z,76.79
2022-12-22T07:21:05.705Z,76.77
2022-12-22T07:23:34.185Z,77.03
2022-12-22T07:26:02.865Z,77.00
2022-12-22T07:28:34.207Z,77.09
2022-12-22T07:31:03.608Z,76.96
2022-12-22T07:33:32.257Z,77.13
2022-12-22T07:36:06.282Z,76.80
2022-12-22T07:38:36.135Z,76.56
2022-12-22T07:41:25.701Z,76.08
2022-12-22T07:43:54.521Z,75.66
2022-12-22T07:46:24.711Z,75.61
2022-12-22T07:49:13.203Z,75.44
2022-12-22T07:51:43.455Z,75.39
2022-12-22T07:54:14.148Z,75.28
2022-12-22T07:56:43.713Z,75.21
2022-12-22T07:59:12.837Z,75.32
2022-12-22T08:01:41.838Z,75.52
2022-12-22T08:04:11.386Z,75.12
2022-12-22T08:06:40.317Z,75.00
2022-12-22T08:09:09.296Z,75.03
2022-12-22T08:11:37.393Z,74.87
2022-12-22T08:14:05.772Z,74.66
2022-12-22T08:16:34.098Z,74.85
2022-12-22T08:19:04.275Z,74.93
2022-12-22T08:21:32.814Z,74.88
2022-12-22T08:24:01.062Z,74.36
2022-12-22T08:26:40.705Z,73.76
2022-12-22T08:29:20.213Z,73.02
2022-12-22T08:31:48.342Z,72.38
2022-12-22T08:34:16.772Z,71.73
2022-12-22T08:36:49.389Z,71.16
2022-12-22T08:39:20.708Z,70.59
2022-12-22T08:41:52.126Z,70.52
2022-12-22T08:44:24.252Z,70.32
2022-12-22T08:46:54.270Z,70.16
2022-12-22T08:49:23.017Z,70.24
2022-12-22T08:51:51.897Z,70.38
2022-12-22T08:54:20.612Z,70.28
2022-12-22T08:56:49.957Z,69.99
2022-12-22T08:59:17.945Z,69.74
2022-12-22T09:01:50.931Z,69.32
2022-12-22T09:04:23.216Z,66.87
2022-12-22T09:06:53.612Z,63.52
2022-12-22T09:09:21.719Z,61.03
2022-12-22T09:11:50.348Z,57.67
2022-12-22T09:14:18.572Z,56.94
2022-12-22T09:16:46.724Z,53.61
2022-12-22T09:19:14.719Z,51.23
2022-12-22T09:21:43.411Z,50.14
2022-12-22T09:24:11.640Z,45.76
2022-12-22T09:26:40.284Z,48.18
2022-12-22T09:29:08.546Z,46.44
2022-12-22T09:31:36.969Z,44.74
2022-12-22T09:34:04.956Z,46.80
2022-12-22T09:36:34.089Z,46.22
2022-12-22T09:39:06.773Z,48.85
2022-12-22T09:41:58.019Z,47.23
2022-12-22T09:44:31.322Z,48.82
2022-12-22T09:47:03.100Z,46.06
2022-12-22T09:49:31.424Z,45.88
2022-12-22T09:52:02.628Z,46.39
2022-12-22T09:54:31.151Z,47.36
2022-12-22T09:56:59.421Z,46.56
2022-12-22T09:59:28.851Z,47.58
2022-12-22T10:02:34.486Z,49.09
2022-12-22T10:05:26.870Z,49.55
2022-12-22T10:08:02.071Z,50.63
2022-12-22T10:10:31.660Z,51.38
2022-12-22T10:13:03.112Z,52.01
2022-12-22T10:15:40.166Z,52.53
2022-12-22T10:18:10.832Z,53.07
2022-12-22T10:20:39.999Z,53.14
2022-12-22T10:23:23.682Z,53.42
2022-12-22T10:26:27.611Z,53.59
2022-12-22T10:28:51.730Z,53.02
2022-12-22T10:31:27.500Z,52.92
2022-12-22T10:34:09.513Z,52.58
2022-12-22T10:36:39.014Z,52.76
2022-12-22T10:39:11.387Z,53.07
2022-12-22T10:41:47.316Z,53.94
2022-12-22T10:44:26.182Z,54.02
2022-12-22T10:47:17.136Z,54.46
2022-12-22T10:52:29.481Z,54.32
2022-12-22T10:55:22.454Z,54.93
2022-12-22T10:57:50.752Z,55.28
2022-12-22T11:00:27.114Z,55.65
2022-12-22T11:03:00.933Z,55.63
2022-12-22T11:05:29.925Z,55.63
2022-12-22T11:08:13.237Z,55.93
2022-12-22T11:11:07.927Z,55.78
2022-12-22T11:13:55.581Z,55.18
2022-12-22T11:16:46.532Z,55.05
2022-12-22T11:19:55.640Z,55.37
2022-12-22T11:22:46.570Z,55.55
2022-12-22T11:25:14.464Z,55.28
2022-12-22T11:28:19.898Z,54.87
2022-12-22T11:31:20.447Z,54.84
2022-12-22T11:34:28.595Z,55.21
2022-12-22T11:37:15.246Z,55.38
2022-12-22T11:39:57.442Z,55.16
2022-12-22T11:42:58.317Z,54.60
2022-12-22T11:45:54.396Z,54.03
2022-12-22T11:48:32.212Z,53.48
2022-12-22T11:51:36.131Z,53.14
2022-12-22T11:54:11.967Z,52.55
2022-12-22T11:56:44.548Z,52.17
2022-12-22T11:59:24.411Z,52.05
2022-12-22T12:02:11.456Z,52.26
2022-12-22T12:05:06.945Z,51.83
2022-12-22T12:07:41.224Z,52.71
2022-12-22T12:10:56.227Z,53.19
2022-12-22T12:13:37.654Z,53.98
2022-12-22T12:16:24.003Z,54.30
2022-12-22T12:19:23.111Z,54.48
2022-12-22T12:22:00.666Z,55.10
2022-12-22T12:25:02.015Z,55.51
2022-12-22T12:27:51.146Z,55.69
2022-12-22T12:30:38.071Z,56.30
2022-12-22T12:33:16.050Z,56.76
2022-12-22T12:36:03.264Z,56.88
2022-12-22T12:39:07.506Z,56.99
2022-12-22T12:41:36.583Z,57.32
2022-12-22T12:44:06.146Z,57.59
2022-12-22T12:46:55.375Z,57.87
2022-12-22T12:49:36.213Z,58.45
2022-12-22T12:52:11.779Z,58.48
2022-12-22T12:54:43.693Z,58.73
2022-12-22T12:57:31.159Z,58.92
2022-12-22T13:00:00.813Z,59.15
2022-12-22T13:02:32.232Z,59.17
2022-12-22T13:05:13.660Z,58.80
2022-12-22T13:08:11.617Z,58.89
2022-12-22T13:10:49.689Z,58.93
2022-12-22T13:13:27.078Z,58.53
2022-12-22T13:16:10.337Z,58.19
2022-12-22T13:18:47.457Z,58.23
2022-12-22T13:24:25.213Z,58.24
2022-12-22T13:26:56.206Z,58.46
2022-12-22T13:29:28.225Z,58.72
2022-12-22T13:32:02.859Z,58.96
2022-12-22T13:35:30.377Z,59.34
2022-12-22T13:37:47.529Z,59.40
2022-12-22T13:40:22.445Z,59.51
2022-12-22T13:42:54.349Z,60.27
2022-12-22T13:45:28.526Z,60.98
2022-12-22T13:47:56.904Z,61.60
2022-12-22T13:50:36.665Z,62.00
2022-12-22T13:53:08.269Z,61.54
2022-12-22T13:55:37.113Z,61.72
2022-12-22T13:58:09.466Z,63.24
2022-12-22T14:00:37.670Z,63.53
2022-12-22T14:03:41.690Z,63.25
2022-12-22T14:06:34.403Z,63.70
2022-12-22T14:09:25.872Z,63.76
2022-12-22T14:12:03.874Z,63.28
2022-12-22T14:14:38.879Z,62.96
2022-12-22T14:17:22.316Z,63.04
2022-12-22T14:19:52.733Z,62.83
2022-12-22T14:22:43.843Z,62.69
2022-12-22T14:25:32.717Z,63.21
2022-12-22T14:28:01.388Z,63.53
2022-12-22T14:30:38.795Z,64.26
2022-12-22T14:33:28.588Z,64.59
2022-12-22T14:36:24.086Z,64.89
2022-12-22T14:38:52.441Z,64.71
2022-12-22T14:41:44.346Z,64.84
2022-12-22T14:44:15.408Z,64.92
2022-12-22T14:46:45.586Z,65.03
2022-12-22T14:49:19.845Z,64.87
2022-12-22T14:52:04.036Z,64.99
2022-12-22T14:54:32.484Z,65.27
2022-12-22T14:57:15.547Z,65.34
2022-12-22T15:00:05.254Z,64.91
2022-12-22T15:02:39.641Z,64.75
2022-12-22T15:05:24.571Z,65.40
2022-12-22T15:08:10.742Z,65.80
2022-12-22T15:10:42.767Z,65.88
2022-12-22T15:13:19.013Z,66.17
2022-12-22T15:15:47.286Z,66.26
2022-12-22T15:18:15.985Z,66.39
2022-12-22T15:20:44.274Z,66.51
2022-12-22T15:23:14.853Z,66.36
2022-12-22T15:25:43.454Z,66.63
2022-12-22T15:28:11.486Z,66.73
2022-12-22T15:30:39.948Z,67.15
2022-12-22T15:33:16.581Z,67.40
2022-12-22T15:35:45.184Z,68.31
2022-12-22T15:38:19.169Z,68.21
2022-12-22T15:40:47.749Z,68.04
2022-12-22T15:43:55.218Z,67.80
2022-12-22T15:46:07.061Z,67.80
2022-12-22T15:48:38.574Z,68.12
2022-12-22T15:51:21.122Z,68.30
2022-12-22T15:53:50.306Z,68.25
2022-12-22T15:56:21.778Z,68.23
2022-12-22T15:58:49.969Z,69.04
2022-12-22T16:01:18.297Z,68.85
2022-12-22T16:03:46.708Z,68.82
2022-12-22T16:06:17.698Z,69.05
2022-12-22T16:08:52.035Z,69.07
2022-12-22T16:11:20.420Z,69.16
2022-12-22T16:13:50.445Z,69.19
2022-12-22T16:16:18.604Z,69.27
2022-12-22T16:18:46.739Z,69.23
2022-12-22T16:21:18.614Z,69.39
2022-12-22T16:23:49.462Z,69.59
2022-12-22T16:26:20.945Z,69.63
2022-12-22T16:28:49.215Z,69.80
2022-12-22T16:31:22.413Z,70.13
2022-12-22T16:33:50.990Z,69.96
2022-12-22T16:36:19.191Z,70.19
2022-12-22T16:38:48.095Z,70.64
2022-12-22T16:41:22.049Z,70.62
2022-12-22T16:43:51.018Z,70.76
2022-12-22T16:46:22.377Z,70.79
2022-12-22T16:48:54.792Z,70.58
2022-12-22T16:51:26.700Z,70.40
2022-12-22T16:53:54.655Z,70.66
2022-12-22T16:56:28.234Z,71.13
2022-12-22T16:58:57.317Z,71.26
2022-12-22T17:01:31.440Z,71.34
2022-12-22T17:04:05.648Z,72.03
2022-12-22T17:06:35.271Z,71.70
2022-12-22T17:09:07.310Z,71.63
2022-12-22T17:11:37.370Z,71.53
2022-12-22T17:14:16.824Z,71.68
2022-12-22T17:16:44.851Z,71.78
2022-12-22T17:19:13.291Z,71.91
2022-12-22T17:21:41.267Z,71.59
2022-12-22T17:24:14.090Z,71.76
2022-12-22T17:26:42.663Z,72.06
2022-12-22T17:29:17.309Z,71.72
2022-12-22T17:31:45.445Z,70.57
2022-12-22T17:34:16.753Z,71.45
2022-12-22T17:36:47.560Z,72.03
2022-12-22T17:39:18.771Z,72.59
2022-12-22T17:41:54.045Z,71.81
2022-12-22T17:44:26.797Z,71.40
2022-12-22T17:46:55.308Z,71.59
2022-12-22T17:49:23.576Z,71.57
2022-12-22T17:51:51.652Z,71.09
2022-12-22T17:54:25.898Z,71.79
2022-12-22T17:56:59.602Z,72.84
2022-12-22T17:59:27.743Z,72.91
2022-12-22T18:01:56.117Z,72.83
2022-12-22T18:04:24.159Z,73.59
2022-12-22T18:06:52.259Z,73.57
2022-12-22T18:09:26.599Z,73.25
2022-12-22T18:11:54.646Z,73.21
2022-12-22T18:14:23.219Z,73.01
2022-12-22T18:16:51.402Z,73.09
2022-12-22T18:19:19.580Z,73.10
2022-12-22T18:21:48.375Z,73.98
2022-12-22T18:24:18.845Z,73.69
2022-12-22T18:26:47.584Z,72.57
2022-12-22T18:29:16.824Z,73.23
2022-12-22T18:31:45.481Z,73.53
2022-12-22T18:34:13.843Z,73.49
2022-12-22T18:36:44.196Z,73.45
2022-12-22T18:39:21.705Z,73.90
2022-12-22T18:41:49.753Z,73.51
2022-12-22T18:44:19.198Z,73.51
2022-12-22T18:46:48.761Z,74.01
2022-12-22T18:49:17.381Z,74.11
2022-12-22T18:51:46.088Z,74.64
2022-12-22T18:54:31.385Z,74.45
2022-12-22T18:56:59.503Z,75.48
2022-12-22T18:59:28.594Z,75.11
2022-12-22T19:02:02.800Z,74.83
2022-12-22T19:04:30.969Z,74.88
2022-12-22T19:06:58.920Z,74.78
2022-12-22T19:09:27.405Z,74.76
2022-12-22T19:11:55.475Z,75.01
2022-12-22T19:14:23.596Z,75.22
2022-12-22T19:16:54.779Z,75.03
2022-12-22T19:19:22.972Z,74.93
2022-12-22T19:21:51.236Z,75.19
2022-12-22T19:24:19.218Z,75.61
2022-12-22T19:26:47.318Z,75.08
2022-12-22T19:29:15.613Z,75.18
2022-12-22T19:31:44.448Z,75.42
2022-12-22T19:34:19.942Z,75.20
2022-12-22T19:36:48.121Z,75.24
2022-12-22T19:39:16.428Z,74.99
2022-12-22T19:41:51.367Z,74.91
2022-12-22T19:44:26.528Z,74.08
2022-12-22T19:46:59.215Z,73.77
2022-12-22T19:49:29.141Z,74.57
2022-12-22T19:51:57.940Z,74.70
2022-12-22T19:54:26.003Z,74.60
2022-12-22T19:56:56.105Z,74.48
2022-12-22T19:59:41.455Z,74.90
2022-12-22T20:02:24.753Z,75.28
2022-12-22T20:04:54.690Z,74.76
2022-12-22T20:07:25.166Z,74.91
2022-12-22T20:09:53.862Z,75.17
2022-12-22T20:12:29.809Z,75.36
2022-12-22T20:14:58.311Z,75.81
2022-12-22T20:17:26.314Z,76.06
2022-12-22T20:19:54.454Z,75.60
2022-12-22T20:22:23.322Z,75.37
2022-12-22T20:24:51.517Z,74.72
2022-12-22T20:27:23.438Z,75.51
2022-12-22T20:29:51.572Z,75.18
2022-12-22T20:32:27.345Z,75.29
2022-12-22T20:34:56.577Z,75.02
2022-12-22T20:37:25.524Z,75.40
2022-12-22T20:39:53.552Z,75.95
2022-12-22T20:42:23.867Z,75.97
2022-12-22T20:45:03.319Z,75.83
2022-12-22T20:47:34.303Z,75.86
2022-12-22T20:50:02.420Z,75.85
2022-12-22T20:52:30.387Z,76.23
2022-12-22T20:54:59.083Z,76.17
2022-12-22T20:57:27.980Z,75.71
2022-12-22T20:59:56.876Z,75.94
2022-12-22T21:02:29.771Z,75.94
2022-12-22T21:04:58.441Z,75.85
2022-12-22T21:07:26.519Z,76.30
2022-12-22T21:09:55.912Z,76.22
2022-12-22T21:12:23.979Z,76.83
2022-12-22T21:14:52.461Z,76.62
2022-12-22T21:17:20.767Z,76.46
2022-12-22T21:19:48.781Z,76.38
2022-12-22T21:22:16.645Z,76.40
2022-12-22T21:24:44.818Z,76.19
2022-12-22T21:27:20.458Z,76.14
2022-12-22T21:29:48.513Z,76.44
2022-12-22T21:32:16.983Z,76.68
2022-12-22T21:34:45.134Z,77.01
2022-12-22T21:37:17.310Z,77.12
2022-12-22T21:39:45.675Z,77.18
2022-12-22T21:42:18.787Z,77.43
2022-12-22T21:44:47.347Z,77.16
2022-12-22T21:47:18.373Z,76.97
2022-12-22T21:49:46.970Z,77.00
2022-12-22T21:52:15.156Z,77.02
2022-12-22T21:54:43.226Z,76.91
2022-12-22T21:57:16.296Z,76.80
2022-12-22T21:59:44.274Z,76.42
2022-12-22T22:02:17.716Z,76.51
2022-12-22T22:04:53.728Z,77.05
2022-12-22T22:07:22.991Z,76.24
2022-12-22T22:09:50.961Z,76.27
2022-12-22T22:12:34.066Z,76.34
2022-12-22T22:15:07.543Z,76.32
2022-12-22T22:17:35.630Z,76.39
2022-12-22T22:20:05.927Z,76.31
2022-12-22T22:22:34.211Z,76.47
2022-12-22T22:25:02.479Z,76.43
2022-12-22T22:27:30.556Z,76.57
2022-12-22T22:29:58.847Z,76.59
2022-12-22T22:32:27.009Z,76.01
2022-12-22T22:34:55.100Z,76.13
2022-12-22T22:37:23.151Z,76.31
2022-12-22T22:39:51.231Z,76.02
2022-12-22T22:42:19.403Z,76.50
2022-12-22T22:44:47.482Z,76.53
2022-12-22T22:47:16.070Z,76.41
2022-12-22T22:49:50.080Z,76.56
2022-12-22T22:52:18.530Z,76.52
2022-12-22T22:54:46.666Z,76.24
2022-12-22T22:57:16.041Z,76.68
2022-12-22T22:59:43.864Z,77.00
2022-12-22T23:02:12.193Z,76.86
2022-12-22T23:04:40.487Z,76.62
2022-12-22T23:07:08.613Z,76.52
2022-12-22T23:09:36.643Z,76.84
2022-12-22T23:12:05.319Z,76.83
2022-12-22T23:14:33.176Z,76.81
2022-12-22T23:17:01.160Z,76.92
2022-12-22T23:19:29.551Z,76.89
2022-12-22T23:21:57.711Z,76.93
2022-12-22T23:24:25.754Z,77.67
2022-12-22T23:26:53.956Z,77.48
2022-12-22T23:29:21.895Z,77.43
2022-12-22T23:31:50.051Z,78.02
2022-12-22T23:34:18.212Z,78.34
2022-12-22T23:36:46.141Z,77.82
2022-12-22T23:39:14.314Z,77.85
2022-12-22T23:41:42.480Z,77.23
2022-12-22T23:44:10.531Z,77.47
2022-12-22T23:46:39.436Z,77.09
2022-12-22T23:49:10.800Z,77.28
2022-12-22T23:51:38.760Z,77.31
2022-12-22T23:54:07.521Z,77.10
2022-12-22T23:56:35.730Z,76.93
2022-12-22T23:59:03.856Z,77.12
